Time,TemperatureF,DewpointF,PressureIn,WindDirection,WindDirectionDegrees,WindSpeedMPH,WindSpeedGustMPH,Humidity,HourlyPrecipIn,Conditions,Clouds,dailyrainin,SolarRadiationWatts/m^2,SoftwareType,DateUTC
2013-07-31 00:04:00,61.6,60.4,30.02,SW,218,3.0,5.0,96,0.00,OVC,SCT,0.00,0.0,WeatherDisplay:10.37,2013-07-31 05:04:00,
2013-07-31 00:09:00,61.5,59.2,30.02,SW,218,5.0,7.0,92,0.00,OVC,SCT,0.00,0.0,WeatherDisplay:10.37,2013-07-31 05:09:00,
2013-07-31 00:14:00,61.3,59.3,30.02,SW,221,6.9,6.9,93,0.00,OVC,SCT,0.00,0.0,WeatherDisplay:10.37,2013-07-31 05:14:00,
2013-07-31 00:20:00,61.3,59.3,30.02,SW,222,4.6,4.6,93,0.00,OVC,SCT,0.00,0.0,WeatherDisplay:10.37,2013-07-31 05:20:00,
2013-07-31 00:25:00,61.3,59.3,30.02,SW,223,4.6,4.6,93,0.00,OVC,SCT,0.00,0.0,WeatherDisplay:10.37,2013-07-31 05:25:00,
2013-07-31 00:30:00,61.3,59.6,30.02,SW,229,4.6,4.6,94,0.00,OVC,SCT,0.00,0.0,WeatherDisplay:10.37,2013-07-31 05:30:00,
2013-07-31 00:35:00,61.5,59.8,30.02,WSW,237,5.8,5.8,94,0.00,OVC,SCT,0.00,0.0,WeatherDisplay:10.37,2013-07-31 05:35:00,
2013-07-31 00:40:00,61.5,60.1,30.02,WSW,237,4.6,4.6,95,0.00,OVC,SCT,0.00,0.0,WeatherDisplay:10.37,2013-07-31 05:40:00,
2013-07-31 00:45:00,61.5,60.1,30.02,WSW,237,3.5,3.5,95,0.00,OVC,SCT,0.00,0.0,WeatherDisplay:10.37,2013-07-31 05:45:00,
2013-07-31 00:50:00,61.5,60.1,30.01,WSW,240,4.6,4.6,95,0.00,OVC,SCT,0.00,0.0,WeatherDisplay:10.37,2013-07-31 05:50:00,
2013-07-31 00:56:00,61.5,60.1,30.01,WSW,241,5.8,5.8,95,0.00,OVC,SCT,0.00,0.0,WeatherDisplay:10.37,2013-07-31 05:56:00,
2013-07-31 01:01:00,61.6,60.2,30.01,WSW,241,4.0,4.0,95,0.00,OVC,SCT,0.00,0.0,WeatherDisplay:10.37,2013-07-31 06:01:00,
2013-07-31 01:06:00,61.6,60.2,30.01,WSW,242,8.0,8.0,95,0.00,OVC,SCT,0.00,0.0,WeatherDisplay:10.37,2013-07-31 06:06:00,
2013-07-31 01:11:00,61.6,60.4,30.01,WSW,247,5.8,5.8,96,0.00,OVC,SCT,0.00,0.0,WeatherDisplay:10.37,2013-07-31 06:11:00,
2013-07-31 01:16:00,61.6,60.4,30.01,WSW,238,6.9,6.9,96,0.00,OVC,SCT,0.00,0.0,WeatherDisplay:10.37,2013-07-31 06:16:00,
2013-07-31 01:21:00,61.8,60.6,30.01,WSW,238,6.0,6.0,96,0.00,OVC,SCT,0.00,0.0,WeatherDisplay:10.37,2013-07-31 06:21:00,
2013-07-31 01:27:00,61.8,60.6,30.00,WSW,239,6.0,6.0,96,0.00,OVC,SCT,0.00,0.0,WeatherDisplay:10.37,2013-07-31 06:27:00,
2013-07-31 01:32:00,61.8,60.6,30.01,SW,230,6.0,6.0,96,0.00,OVC,SCT,0.00,0.0,WeatherDisplay:10.37,2013-07-31 06:32:00,
2013-07-31 01:37:00,61.8,60.6,30.00,SW,231,6.9,6.9,96,0.00,OVC,SCT,0.00,0.0,WeatherDisplay:10.37,2013-07-31 06:37:00,
2013-07-31 01:42:00,61.8,60.6,30.00,WSW,239,5.8,5.8,96,0.00,OVC,SCT,0.00,0.0,WeatherDisplay:10.37,2013-07-31 06:42:00,
2013-07-31 01:47:00,62.0,60.8,30.00,SW,232,5.0,5.0,96,0.00,OVC,SCT,0.00,0.0,WeatherDisplay:10.37,2013-07-31 06:47:00,
2013-07-31 01:52:00,62.0,60.8,30.01,SW,235,6.0,6.0,96,0.00,OVC,SCT,0.00,0.0,WeatherDisplay:10.37,2013-07-31 06:52:00,
2013-07-31 01:58:00,62.0,60.8,30.01,WSW,250,6.0,6.0,96,0.00,OVC,SCT,0.00,0.0,WeatherDisplay:10.37,2013-07-31 06:58:00,
2013-07-31 02:03:00,62.0,60.8,30.01,WSW,255,5.0,5.0,96,0.00,OVC,SCT,0.00,0.0,WeatherDisplay:10.37,2013-07-31 07:03:00,
2013-07-31 02:08:00,62.0,60.8,30.01,WSW,242,8.1,8.1,96,0.00,OVC,SCT,0.00,0.0,WeatherDisplay:10.37,2013-07-31 07:08:00,
2013-07-31 02:13:00,62.0,60.8,30.01,WSW,248,10.4,10.4,96,0.00,OVC,SCT,0.00,0.0,WeatherDisplay:10.37,2013-07-31 07:13:00,
2013-07-31 02:18:00,62.1,60.9,30.00,WSW,252,8.1,8.1,96,0.00,OVC,SCT,0.00,0.0,WeatherDisplay:10.37,2013-07-31 07:18:00,
2013-07-31 02:23:00,62.1,60.9,30.00,WSW,252,7.0,7.0,96,0.00,OVC,SCT,0.00,0.0,WeatherDisplay:10.37,2013-07-31 07:23:00,
2013-07-31 02:28:00,62.1,60.9,30.00,WSW,247,8.1,8.1,96,0.00,OVC,SCT,0.00,0.0,WeatherDisplay:10.37,2013-07-31 07:28:00,
2013-07-31 02:34:00,62.1,60.9,30.00,WSW,250,9.0,9.0,96,0.00,OVC,SCT,0.00,0.0,WeatherDisplay:10.37,2013-07-31 07:34:00,
2013-07-31 02:39:00,62.1,61.2,30.00,WSW,247,10.4,10.4,97,0.00,OVC,SCT,0.00,0.0,WeatherDisplay:10.37,2013-07-31 07:39:00,
2013-07-31 02:44:00,62.1,61.2,30.01,WSW,256,11.0,11.0,97,0.00,OVC,SCT,0.00,0.0,WeatherDisplay:10.37,2013-07-31 07:44:00,
2013-07-31 02:49:00,62.3,61.4,30.01,West,261,12.7,12.7,97,0.00,OVC,SCT,0.00,0.0,WeatherDisplay:10.37,2013-07-31 07:49:00,
2013-07-31 02:54:00,62.3,61.4,30.01,West,261,8.1,8.1,97,0.00,OVC,SCT,0.00,0.0,WeatherDisplay:10.37,2013-07-31 07:54:00,
2013-07-31 02:59:00,62.3,61.4,30.00,WSW,257,11.5,11.5,97,0.00,OVC,SCT,0.00,0.0,WeatherDisplay:10.37,2013-07-31 07:59:00,
2013-07-31 03:04:00,62.3,61.4,30.00,WSW,257,8.0,8.0,97,0.00,OVC,SCT,0.00,0.0,WeatherDisplay:10.37,2013-07-31 08:04:00,
2013-07-31 03:09:00,62.3,61.4,30.01,West,260,6.0,9.0,97,0.00,OVC,SCT,0.00,0.0,WeatherDisplay:10.37,2013-07-31 08:09:00,
2013-07-31 03:14:00,62.3,61.4,30.01,West,261,6.0,8.0,97,0.00,OVC,SCT,0.00,0.0,WeatherDisplay:10.37,2013-07-31 08:14:00,
2013-07-31 03:19:00,62.4,61.5,30.01,WSW,258,8.0,12.0,97,0.00,OVC,SCT,0.00,0.0,WeatherDisplay:10.37,2013-07-31 08:19:00,
2013-07-31 03:25:00,62.4,61.8,30.00,West,261,9.2,9.2,98,0.00,OVC,SCT,0.00,0.0,WeatherDisplay:10.37,2013-07-31 08:25:00,
2013-07-31 03:30:00,62.4,61.8,30.00,West,277,11.5,11.5,98,0.00,OVC,SCT,0.00,0.0,WeatherDisplay:10.37,2013-07-31 08:30:00,
2013-07-31 03:35:00,62.3,61.7,30.01,West,266,6.0,6.0,98,0.00,OVC,SCT,0.00,0.0,WeatherDisplay:10.37,2013-07-31 08:35:00,
2013-07-31 03:40:00,62.3,61.7,30.01,West,266,5.0,5.0,98,0.00,OVC,SCT,0.00,0.0,WeatherDisplay:10.37,2013-07-31 08:40:00,
2013-07-31 03:45:00,62.3,61.7,30.00,WSW,254,6.9,6.9,98,0.00,OVC,SCT,0.00,0.0,WeatherDisplay:10.37,2013-07-31 08:45:00,
2013-07-31 03:50:00,62.3,61.4,30.00,WSW,256,8.1,9.4,97,0.00,OVC,SCT,0.00,0.0,WeatherDisplay:10.37,2013-07-31 08:50:00,
2013-07-31 03:55:00,62.3,61.4,29.99,WSW,256,8.1,8.1,97,0.00,OVC,SCT,0.00,0.0,WeatherDisplay:10.37,2013-07-31 08:55:00,
2013-07-31 04:01:00,62.1,61.2,29.99,West,266,6.9,6.9,97,0.00,OVC,SCT,0.00,0.0,WeatherDisplay:10.37,2013-07-31 09:01:00,
2013-07-31 04:06:00,62.1,61.2,29.99,West,261,6.0,6.0,97,0.00,OVC,SCT,0.00,0.0,WeatherDisplay:10.37,2013-07-31 09:06:00,
2013-07-31 04:11:00,62.1,61.2,29.99,West,266,8.1,8.1,97,0.00,OVC,SCT,0.00,0.0,WeatherDisplay:10.37,2013-07-31 09:11:00,
2013-07-31 04:16:00,62.1,61.2,30.00,West,275,10.4,10.4,97,0.00,OVC,SCT,0.00,0.0,WeatherDisplay:10.37,2013-07-31 09:16:00,
2013-07-31 04:22:00,62.1,61.2,30.00,West,266,8.1,8.1,97,0.00,OVC,SCT,0.00,0.0,WeatherDisplay:10.37,2013-07-31 09:22:00,
2013-07-31 04:27:00,62.1,61.2,29.99,West,266,6.9,6.9,97,0.00,OVC,SCT,0.00,0.0,WeatherDisplay:10.37,2013-07-31 09:27:00,
2013-07-31 04:32:00,62.0,61.1,29.99,West,266,9.2,9.2,97,0.00,OVC,SCT,0.00,0.0,WeatherDisplay:10.37,2013-07-31 09:32:00,
2013-07-31 04:37:00,62.0,61.1,29.99,West,266,6.9,6.9,97,0.00,OVC,SCT,0.00,0.0,WeatherDisplay:10.37,2013-07-31 09:37:00,
2013-07-31 04:42:00,62.0,61.1,29.99,West,261,8.0,8.0,97,0.00,OVC,SCT,0.00,0.0,WeatherDisplay:10.37,2013-07-31 09:42:00,
2013-07-31 04:47:00,62.0,61.1,30.00,WSW,255,9.2,9.2,97,0.00,OVC,SCT,0.00,0.0,WeatherDisplay:10.37,2013-07-31 09:47:00,
2013-07-31 04:52:00,62.0,61.1,30.00,WSW,254,9.2,9.2,97,0.00,OVC,SCT,0.00,0.0,WeatherDisplay:10.37,2013-07-31 09:52:00,
2013-07-31 04:57:00,62.0,61.1,30.00,WSW,254,8.1,8.1,97,0.00,OVC,SCT,0.00,0.0,WeatherDisplay:10.37,2013-07-31 09:57:00,
2013-07-31 05:02:00,62.0,61.1,30.00,WSW,256,8.1,8.1,97,0.00,OVC,SCT,0.00,0.0,WeatherDisplay:10.37,2013-07-31 10:02:00,
2013-07-31 05:08:00,62.0,61.1,30.00,WSW,255,5.8,5.8,97,0.00,OVC,SCT,0.00,0.0,WeatherDisplay:10.37,2013-07-31 10:08:00,
2013-07-31 05:13:00,61.8,60.9,30.00,WSW,251,8.0,8.0,97,0.00,OVC,SCT,0.00,0.0,WeatherDisplay:10.37,2013-07-31 10:13:00,
2013-07-31 05:18:00,61.8,60.9,30.00,WSW,248,4.6,4.6,97,0.00,OVC,SCT,0.00,0.0,WeatherDisplay:10.37,2013-07-31 10:18:00,
2013-07-31 05:23:00,61.8,60.9,30.01,WSW,252,8.1,8.1,97,0.00,OVC,SCT,0.00,0.0,WeatherDisplay:10.37,2013-07-31 10:23:00,
2013-07-31 05:28:00,61.8,60.9,30.00,WSW,252,6.9,6.9,97,0.00,OVC,SCT,0.00,0.0,WeatherDisplay:10.37,2013-07-31 10:28:00,
2013-07-31 05:33:00,61.8,60.9,30.00,WSW,244,8.1,8.1,97,0.00,OVC,SCT,0.00,0.0,WeatherDisplay:10.37,2013-07-31 10:33:00,
2013-07-31 05:38:00,61.8,60.9,30.01,WSW,243,8.1,8.1,97,0.00,OVC,SCT,0.00,0.0,WeatherDisplay:10.37,2013-07-31 10:38:00,
2013-07-31 05:43:00,61.6,60.7,30.01,WSW,243,5.8,5.8,97,0.00,OVC,SCT,0.00,0.0,WeatherDisplay:10.37,2013-07-31 10:43:00,
2013-07-31 05:49:00,61.6,60.7,30.01,WSW,239,6.9,6.9,97,0.00,OVC,SCT,0.00,0.0,WeatherDisplay:10.37,2013-07-31 10:49:00,
2013-07-31 05:54:00,61.6,60.7,30.01,WSW,246,3.5,3.5,97,0.00,OVC,SCT,0.00,0.0,WeatherDisplay:10.37,2013-07-31 10:54:00,
2013-07-31 05:59:00,61.6,60.7,30.01,WSW,246,5.8,5.8,97,0.00,OVC,SCT,0.00,0.0,WeatherDisplay:10.37,2013-07-31 10:59:00,
2013-07-31 06:04:00,61.5,60.6,30.00,WSW,237,8.1,8.1,97,0.00,OVC,SCT,0.00,0.0,WeatherDisplay:10.37,2013-07-31 11:04:00,
2013-07-31 06:09:00,61.5,60.6,30.00,WSW,246,6.9,6.9,97,0.00,OVC,SCT,0.00,0.0,WeatherDisplay:10.37,2013-07-31 11:09:00,
2013-07-31 06:14:00,61.5,60.6,30.00,WSW,246,5.8,5.8,97,0.00,OVC,SCT,0.00,0.0,WeatherDisplay:10.37,2013-07-31 11:14:00,
2013-07-31 06:19:00,61.3,60.2,30.00,WSW,242,5.8,5.8,96,0.00,OVC,SCT,0.00,0.0,WeatherDisplay:10.37,2013-07-31 11:19:00,
2013-07-31 06:24:00,61.3,60.2,29.99,WSW,237,6.0,9.0,96,0.00,OVC,SCT,0.00,0.0,WeatherDisplay:10.37,2013-07-31 11:24:00,
2013-07-31 06:29:00,61.3,60.2,29.99,SW,236,7.0,7.7,96,0.00,OVC,SCT,0.00,0.0,WeatherDisplay:10.37,2013-07-31 11:29:00,
2013-07-31 06:35:00,61.3,60.2,30.00,WSW,239,8.1,8.1,96,0.00,OVC,SCT,0.00,0.0,WeatherDisplay:10.37,2013-07-31 11:35:00,
2013-07-31 06:40:00,61.3,60.2,30.00,WSW,240,6.0,6.0,96,0.00,OVC,SCT,0.00,0.0,WeatherDisplay:10.37,2013-07-31 11:40:00,
2013-07-31 06:45:00,61.3,60.2,30.00,WSW,244,9.0,9.0,96,0.00,OVC,SCT,0.00,0.0,WeatherDisplay:10.37,2013-07-31 11:45:00,
2013-07-31 06:50:00,61.3,60.2,30.00,WSW,242,9.2,9.2,96,0.00,OVC,SCT,0.00,0.0,WeatherDisplay:10.37,2013-07-31 11:50:00,
2013-07-31 06:55:00,61.3,60.4,30.00,WSW,237,6.9,6.9,97,0.00,OVC,SCT,0.00,0.0,WeatherDisplay:10.37,2013-07-31 11:55:00,
2013-07-31 07:00:00,61.5,60.6,30.00,WSW,242,6.9,6.9,97,0.00,OVC,SCT,0.00,0.0,WeatherDisplay:10.37,2013-07-31 12:00:00,
2013-07-31 07:05:00,61.6,60.7,30.00,WSW,242,9.2,9.2,97,0.00,OVC,SCT,0.00,0.0,WeatherDisplay:10.37,2013-07-31 12:05:00,
2013-07-31 07:10:00,61.6,60.7,30.00,WSW,237,8.1,8.1,97,0.00,OVC,SCT,0.00,0.0,WeatherDisplay:10.37,2013-07-31 12:10:00,
2013-07-31 07:16:00,61.6,60.7,30.00,WSW,240,5.8,5.8,97,0.00,OVC,SCT,0.00,0.0,WeatherDisplay:10.37,2013-07-31 12:16:00,
2013-07-31 07:21:00,61.8,60.9,30.00,WSW,237,8.1,8.1,97,0.00,OVC,SCT,0.00,0.0,WeatherDisplay:10.37,2013-07-31 12:21:00,
2013-07-31 07:26:00,61.8,60.9,30.00,WSW,238,5.8,5.8,97,0.00,OVC,SCT,0.00,0.0,WeatherDisplay:10.37,2013-07-31 12:26:00,
2013-07-31 07:31:00,61.8,60.9,30.00,WSW,238,3.5,3.5,97,0.00,OVC,SCT,0.00,0.0,WeatherDisplay:10.37,2013-07-31 12:31:00,
2013-07-31 07:37:00,61.8,60.9,30.01,WSW,238,6.0,6.0,97,0.00,OVC,SCT,0.00,0.0,WeatherDisplay:10.37,2013-07-31 12:37:00,
2013-07-31 07:42:00,61.8,60.9,30.00,WSW,238,4.6,4.6,97,0.00,OVC,SCT,0.00,0.0,WeatherDisplay:10.37,2013-07-31 12:42:00,
2013-07-31 07:47:00,61.8,60.9,30.00,WSW,238,3.5,3.5,97,0.00,OVC,SCT,0.00,0.0,WeatherDisplay:10.37,2013-07-31 12:47:00,
2013-07-31 07:52:00,61.8,60.6,30.00,WSW,238,5.8,5.8,96,0.00,OVC,SCT,0.00,0.0,WeatherDisplay:10.37,2013-07-31 12:52:00,
2013-07-31 07:57:00,61.8,60.6,30.00,WSW,242,5.0,5.0,96,0.00,OVC,SCT,0.00,0.0,WeatherDisplay:10.37,2013-07-31 12:57:00,
2013-07-31 08:02:00,61.8,60.9,30.00,WSW,246,8.1,8.1,97,0.00,OVC,SCT,0.00,0.0,WeatherDisplay:10.37,2013-07-31 13:02:00,
2013-07-31 08:07:00,62.0,61.1,29.99,WSW,244,9.2,9.2,97,0.00,OVC,SCT,0.00,0.0,WeatherDisplay:10.37,2013-07-31 13:07:00,
2013-07-31 08:13:00,62.0,61.1,29.99,WSW,239,6.9,6.9,97,0.00,OVC,SCT,0.00,0.0,WeatherDisplay:10.37,2013-07-31 13:13:00,
2013-07-31 08:18:00,62.1,61.2,29.98,SW,227,4.6,4.6,97,0.00,OVC,SCT,0.00,0.0,WeatherDisplay:10.37,2013-07-31 13:18:00,
2013-07-31 08:23:00,62.3,61.4,29.98,SW,233,5.8,5.8,97,0.00,OVC,SCT,0.00,0.0,WeatherDisplay:10.37,2013-07-31 13:23:00,
2013-07-31 08:28:00,62.3,61.4,29.98,WSW,242,8.1,8.1,97,0.00,OVC,SCT,0.00,0.0,WeatherDisplay:10.37,2013-07-31 13:28:00,
2013-07-31 08:33:00,62.4,61.5,29.98,WSW,246,8.1,8.1,97,0.00,OVC,SCT,0.00,0.0,WeatherDisplay:10.37,2013-07-31 13:33:00,
2013-07-31 08:38:00,62.6,61.7,29.98,WSW,247,9.0,9.0,97,0.00,OVC,SCT,0.00,0.0,WeatherDisplay:10.37,2013-07-31 13:38:00,
2013-07-31 08:43:00,62.7,61.8,29.98,WSW,248,6.0,6.0,97,0.00,OVC,SCT,0.00,0.0,WeatherDisplay:10.37,2013-07-31 13:43:00,
2013-07-31 08:48:00,62.9,62.0,29.98,WSW,247,6.9,6.9,97,0.00,OVC,SCT,0.00,0.0,WeatherDisplay:10.37,2013-07-31 13:48:00,
2013-07-31 08:54:00,63.1,62.2,29.98,WSW,244,8.1,8.1,97,0.00,OVC,SCT,0.00,0.0,WeatherDisplay:10.37,2013-07-31 13:54:00,
2013-07-31 08:59:00,63.1,62.2,29.99,WSW,254,5.8,5.8,97,0.00,OVC,SCT,0.00,0.0,WeatherDisplay:10.37,2013-07-31 13:59:00,
2013-07-31 09:04:00,63.2,62.3,29.98,WSW,251,9.2,9.2,97,0.00,OVC,SCT,0.00,0.0,WeatherDisplay:10.37,2013-07-31 14:04:00,
2013-07-31 09:09:00,63.2,62.0,29.99,WSW,251,5.8,5.8,96,0.00,OVC,SCT,0.00,0.0,WeatherDisplay:10.37,2013-07-31 14:09:00,
2013-07-31 09:14:00,63.2,62.0,29.98,WSW,245,6.9,6.9,96,0.00,OVC,SCT,0.00,0.0,WeatherDisplay:10.37,2013-07-31 14:14:00,
2013-07-31 09:19:00,63.4,62.2,29.98,WSW,256,8.1,8.1,96,0.00,OVC,SCT,0.00,0.0,WeatherDisplay:10.37,2013-07-31 14:19:00,
2013-07-31 09:24:00,63.5,62.3,29.98,WSW,249,6.0,9.0,96,0.00,OVC,SCT,0.00,0.0,WeatherDisplay:10.37,2013-07-31 14:24:00,
2013-07-31 09:29:00,63.7,62.5,29.98,WSW,244,5.0,9.0,96,0.00,OVC,SCT,0.00,0.0,WeatherDisplay:10.37,2013-07-31 14:29:00,
2013-07-31 09:34:00,63.9,62.7,29.98,West,261,9.2,9.2,96,0.00,OVC,SCT,0.00,0.0,WeatherDisplay:10.37,2013-07-31 14:34:00,
2013-07-31 09:39:00,64.0,62.8,29.98,West,266,5.0,9.0,96,0.00,OVC,SCT,0.00,0.0,WeatherDisplay:10.37,2013-07-31 14:39:00,
2013-07-31 09:44:00,64.2,62.7,29.98,WSW,256,8.1,8.1,95,0.00,OVC,SCT,0.00,0.0,WeatherDisplay:10.37,2013-07-31 14:44:00,
2013-07-31 09:50:00,64.2,62.7,29.98,SW,229,9.0,9.0,95,0.00,OVC,SCT,0.00,0.0,WeatherDisplay:10.37,2013-07-31 14:50:00,
2013-07-31 09:55:00,64.3,62.5,29.97,WSW,242,8.1,8.1,94,0.00,OVC,SCT,0.00,0.0,WeatherDisplay:10.37,2013-07-31 14:55:00,
2013-07-31 10:00:00,64.8,62.4,29.98,SW,236,11.5,11.5,92,0.00,OVC,SCT,0.00,0.0,WeatherDisplay:10.37,2013-07-31 15:00:00,
2013-07-31 10:05:00,65.0,62.3,29.97,WSW,254,11.5,11.5,91,0.00,OVC,SCT,0.00,0.0,WeatherDisplay:10.37,2013-07-31 15:05:00,
2013-07-31 10:10:00,65.2,61.9,29.97,West,266,9.2,9.2,89,0.00,OVC,SCT,0.00,0.0,WeatherDisplay:10.37,2013-07-31 15:10:00,
2013-07-31 10:15:00,65.3,62.0,29.97,WSW,242,10.4,10.4,89,0.00,OVC,SCT,0.00,0.0,WeatherDisplay:10.37,2013-07-31 15:15:00,
2013-07-31 10:20:00,65.6,62.3,29.97,SW,229,10.4,10.4,89,0.00,OVC,SCT,0.00,0.0,WeatherDisplay:10.37,2013-07-31 15:20:00,
2013-07-31 10:26:00,65.6,61.6,29.97,SW,235,8.1,8.1,87,0.00,OVC,SCT,0.00,0.0,WeatherDisplay:10.37,2013-07-31 15:26:00,
2013-07-31 10:31:00,65.6,61.9,29.97,West,266,11.5,11.5,88,0.00,OVC,SCT,0.00,0.0,WeatherDisplay:10.37,2013-07-31 15:31:00,
2013-07-31 10:36:00,65.5,61.9,29.97,SW,229,9.2,9.2,88,0.00,OVC,SCT,0.00,0.0,WeatherDisplay:10.37,2013-07-31 15:36:00,
2013-07-31 10:41:00,65.5,62.2,29.97,WSW,242,11.5,11.5,89,0.00,OVC,SCT,0.00,0.0,WeatherDisplay:10.37,2013-07-31 15:41:00,
2013-07-31 10:46:00,65.5,61.9,29.98,WSW,252,11.5,11.5,88,0.00,OVC,SCT,0.00,0.0,WeatherDisplay:10.37,2013-07-31 15:46:00,
2013-07-31 10:51:00,65.3,61.7,29.97,SW,235,11.5,11.5,88,0.00,OVC,SCT,0.00,0.0,WeatherDisplay:10.37,2013-07-31 15:51:00,
2013-07-31 10:57:00,65.6,62.3,29.97,WSW,252,9.2,9.2,89,0.00,OVC,SCT,0.00,0.0,WeatherDisplay:10.37,2013-07-31 15:57:00,
2013-07-31 11:02:00,65.6,61.6,29.97,West,266,10.0,10.0,87,0.00,OVC,SCT,0.00,0.0,WeatherDisplay:10.37,2013-07-31 16:02:00,
2013-07-31 11:07:00,65.8,61.8,29.97,West,271,11.5,11.5,87,0.00,OVC,SCT,0.00,0.0,WeatherDisplay:10.37,2013-07-31 16:07:00,
2013-07-31 11:12:00,65.8,61.5,29.97,West,261,12.7,12.7,86,0.00,OVC,SCT,0.00,0.0,WeatherDisplay:10.37,2013-07-31 16:12:00,
2013-07-31 11:17:00,65.8,61.8,29.97,WSW,254,15.0,15.0,87,0.00,OVC,SCT,0.00,0.0,WeatherDisplay:10.37,2013-07-31 16:17:00,
2013-07-31 11:22:00,66.0,61.4,29.97,SW,233,12.7,12.7,85,0.00,OVC,SCT,0.00,0.0,WeatherDisplay:10.37,2013-07-31 16:22:00,
2013-07-31 11:27:00,66.4,61.8,29.97,WSW,243,10.4,10.4,85,0.00,OVC,SCT,0.00,0.0,WeatherDisplay:10.37,2013-07-31 16:27:00,
2013-07-31 11:33:00,66.8,61.8,29.96,WSW,249,11.5,11.5,84,0.00,OVC,SCT,0.00,0.0,WeatherDisplay:10.37,2013-07-31 16:33:00,
2013-07-31 11:38:00,66.8,61.1,29.96,WSW,237,11.5,11.5,82,0.00,OVC,SCT,0.00,0.0,WeatherDisplay:10.37,2013-07-31 16:38:00,
2013-07-31 11:43:00,66.9,60.9,29.96,SW,227,13.8,13.8,81,0.00,OVC,SCT,0.00,0.0,WeatherDisplay:10.37,2013-07-31 16:43:00,
2013-07-31 11:48:00,67.6,60.9,29.96,SW,220,15.0,15.0,79,0.00,OVC,SCT,0.00,0.0,WeatherDisplay:10.37,2013-07-31 16:48:00,
2013-07-31 11:53:00,67.6,61.2,29.96,West,266,17.3,17.3,80,0.00,OVC,SCT,0.00,0.0,WeatherDisplay:10.37,2013-07-31 16:53:00,
2013-07-31 11:58:00,67.6,60.9,29.95,WSW,257,11.0,11.0,79,0.00,OVC,SCT,0.00,0.0,WeatherDisplay:10.37,2013-07-31 16:58:00,
2013-07-31 12:03:00,67.6,61.2,29.95,SW,233,9.0,9.0,80,0.00,OVC,SCT,0.00,0.0,WeatherDisplay:10.37,2013-07-31 17:03:00,
2013-07-31 12:08:00,68.3,60.4,29.95,West,266,10.4,10.4,76,0.00,OVC,SCT,0.00,0.0,WeatherDisplay:10.37,2013-07-31 17:08:00,
2013-07-31 12:14:00,68.4,60.5,29.95,West,261,14.0,14.0,76,0.00,OVC,SCT,0.00,0.0,WeatherDisplay:10.37,2013-07-31 17:14:00,
2013-07-31 12:19:00,68.9,62.1,29.95,WSW,240,12.0,12.0,79,0.00,OVC,SCT,0.00,0.0,WeatherDisplay:10.37,2013-07-31 17:19:00,
2013-07-31 12:24:00,68.8,60.2,29.95,WSW,238,11.5,11.5,74,0.00,OVC,SCT,0.00,0.0,WeatherDisplay:10.37,2013-07-31 17:24:00,
2013-07-31 12:29:00,68.9,61.0,29.95,West,280,11.5,11.5,76,0.00,OVC,SCT,0.00,0.0,WeatherDisplay:10.37,2013-07-31 17:29:00,
2013-07-31 12:34:00,68.6,60.4,29.95,West,266,8.1,8.1,75,0.00,OVC,SCT,0.00,0.0,WeatherDisplay:10.37,2013-07-31 17:34:00,
2013-07-31 12:39:00,68.6,60.7,29.94,WSW,247,13.8,13.8,76,0.00,OVC,SCT,0.00,0.0,WeatherDisplay:10.37,2013-07-31 17:39:00,
2013-07-31 12:44:00,68.9,61.4,29.94,West,266,11.0,11.0,77,0.00,OVC,SCT,0.00,0.0,WeatherDisplay:10.37,2013-07-31 17:44:00,
2013-07-31 12:49:00,69.3,60.3,29.94,WSW,258,13.0,15.0,73,0.00,OVC,SCT,0.00,0.0,WeatherDisplay:10.37,2013-07-31 17:49:00,
2013-07-31 12:54:00,68.9,59.5,29.94,West,275,9.2,9.2,72,0.00,OVC,SCT,0.00,0.0,WeatherDisplay:10.37,2013-07-31 17:54:00,
2013-07-31 12:59:00,68.8,60.6,29.94,West,267,6.0,9.0,75,0.00,OVC,SCT,0.00,0.0,WeatherDisplay:10.37,2013-07-31 17:59:00,
2013-07-31 13:04:00,68.9,60.3,29.94,WSW,247,9.0,14.0,74,0.00,OVC,SCT,0.00,0.0,WeatherDisplay:10.37,2013-07-31 18:04:00,
2013-07-31 13:09:00,69.2,61.0,29.94,WSW,239,12.0,16.0,75,0.00,OVC,SCT,0.00,0.0,WeatherDisplay:10.37,2013-07-31 18:09:00,
2013-07-31 13:14:00,69.3,60.7,29.94,WSW,241,12.0,18.0,74,0.00,OVC,SCT,0.00,0.0,WeatherDisplay:10.37,2013-07-31 18:14:00,
2013-07-31 13:19:00,69.1,61.2,29.94,WSW,246,12.0,18.0,76,0.00,OVC,SCT,0.00,0.0,WeatherDisplay:10.37,2013-07-31 18:19:00,
2013-07-31 13:25:00,69.3,60.7,29.94,West,261,12.7,12.7,74,0.00,OVC,SCT,0.00,0.0,WeatherDisplay:10.37,2013-07-31 18:25:00,
2013-07-31 13:30:00,69.3,60.3,29.94,West,261,13.8,13.8,73,0.00,OVC,SCT,0.00,0.0,WeatherDisplay:10.37,2013-07-31 18:30:00,
2013-07-31 13:35:00,69.9,59.7,29.93,West,266,17.3,17.3,70,0.00,OVC,SCT,0.00,0.0,WeatherDisplay:10.37,2013-07-31 18:35:00,
2013-07-31 13:40:00,70.4,60.9,29.94,WSW,237,16.0,16.0,72,0.00,OVC,SCT,0.00,0.0,WeatherDisplay:10.37,2013-07-31 18:40:00,
2013-07-31 13:45:00,71.3,61.0,29.93,WSW,242,13.0,13.0,70,0.00,OVC,SCT,0.00,0.0,WeatherDisplay:10.37,2013-07-31 18:45:00,
2013-07-31 13:50:00,71.3,60.2,29.93,West,261,17.3,17.3,68,0.00,OVC,SCT,0.00,0.0,WeatherDisplay:10.37,2013-07-31 18:50:00,
2013-07-31 13:55:00,70.8,60.1,29.93,WSW,250,18.4,18.4,69,0.00,OVC,SCT,0.00,0.0,WeatherDisplay:10.37,2013-07-31 18:55:00,
2013-07-31 14:00:00,69.9,58.4,29.93,WSW,256,19.6,19.6,67,0.00,OVC,SCT,0.00,0.0,WeatherDisplay:10.37,2013-07-31 19:00:00,
2013-07-31 14:06:00,70.3,59.2,29.92,WSW,248,17.3,17.3,68,0.00,OVC,SCT,0.00,0.0,WeatherDisplay:10.37,2013-07-31 19:06:00,
2013-07-31 14:11:00,70.8,58.4,29.92,WSW,242,14.0,14.0,65,0.00,OVC,SCT,0.00,0.0,WeatherDisplay:10.37,2013-07-31 19:11:00,
2013-07-31 14:16:00,71.1,58.3,29.92,West,261,18.4,18.4,64,0.00,OVC,SCT,0.00,0.0,WeatherDisplay:10.37,2013-07-31 19:16:00,
2013-07-31 14:21:00,71.3,58.5,29.92,West,281,19.6,19.6,64,0.00,OVC,SCT,0.00,0.0,WeatherDisplay:10.37,2013-07-31 19:21:00,
2013-07-31 14:26:00,71.6,57.0,29.92,West,266,17.0,17.0,60,0.00,OVC,SCT,0.00,0.0,WeatherDisplay:10.37,2013-07-31 19:26:00,
2013-07-31 14:31:00,71.1,56.0,29.92,WNW,294,19.6,19.6,59,0.00,OVC,SCT,0.00,0.0,WeatherDisplay:10.37,2013-07-31 19:31:00,
2013-07-31 14:37:00,71.6,57.9,29.92,WSW,249,19.0,19.0,62,0.00,OVC,SCT,0.00,0.0,WeatherDisplay:10.37,2013-07-31 19:37:00,
2013-07-31 14:42:00,71.1,56.5,29.92,West,266,20.7,20.7,60,0.00,OVC,SCT,0.00,0.0,WeatherDisplay:10.37,2013-07-31 19:42:00,
2013-07-31 14:47:00,70.9,57.7,29.91,SW,227,24.2,24.2,63,0.00,OVC,SCT,0.00,0.0,WeatherDisplay:10.37,2013-07-31 19:47:00,
2013-07-31 14:52:00,71.3,57.2,29.91,WNW,293,24.2,24.2,61,0.00,OVC,SCT,0.00,0.0,WeatherDisplay:10.37,2013-07-31 19:52:00,
2013-07-31 14:57:00,71.6,57.0,29.91,WSW,246,23.0,23.0,60,0.00,OVC,SCT,0.00,0.0,WeatherDisplay:10.37,2013-07-31 19:57:00,
2013-07-31 15:02:00,71.5,57.8,29.91,WSW,246,21.9,21.9,62,0.00,OVC,SCT,0.00,0.0,WeatherDisplay:10.37,2013-07-31 20:02:00,
2013-07-31 15:07:00,71.8,57.2,29.91,WSW,256,23.0,23.0,60,0.00,OVC,SCT,0.00,0.0,WeatherDisplay:10.37,2013-07-31 20:07:00,
2013-07-31 15:12:00,71.6,56.0,29.91,West,279,28.8,28.8,58,0.00,OVC,SCT,0.00,0.0,WeatherDisplay:10.37,2013-07-31 20:12:00,
2013-07-31 15:17:00,71.8,57.2,29.91,WNW,287,25.3,25.3,60,0.00,OVC,SCT,0.00,0.0,WeatherDisplay:10.37,2013-07-31 20:17:00,
2013-07-31 15:23:00,72.1,56.5,29.91,WSW,256,24.2,24.2,58,0.00,OVC,SCT,0.00,0.0,WeatherDisplay:10.37,2013-07-31 20:23:00,
2013-07-31 15:28:00,72.1,54.5,29.91,West,266,26.5,26.5,54,0.00,OVC,SCT,0.00,0.0,WeatherDisplay:10.37,2013-07-31 20:28:00,
2013-07-31 15:33:00,72.0,54.9,29.90,NW,312,24.2,24.2,55,0.00,OVC,SCT,0.00,0.0,WeatherDisplay:10.37,2013-07-31 20:33:00,
2013-07-31 15:38:00,72.1,54.0,29.90,West,266,20.7,20.7,53,0.00,OVC,SCT,0.00,0.0,WeatherDisplay:10.37,2013-07-31 20:38:00,
2013-07-31 15:43:00,72.3,54.2,29.90,West,266,21.9,21.9,53,0.00,OVC,SCT,0.00,0.0,WeatherDisplay:10.37,2013-07-31 20:43:00,
2013-07-31 15:48:00,72.7,54.1,29.90,SW,233,19.6,19.6,52,0.00,OVC,SCT,0.00,0.0,WeatherDisplay:10.37,2013-07-31 20:48:00,
2013-07-31 15:53:00,72.3,53.2,29.90,WNW,290,20.7,20.7,51,0.00,OVC,SCT,0.00,0.0,WeatherDisplay:10.37,2013-07-31 20:53:00,
2013-07-31 15:59:00,72.1,52.4,29.90,WSW,254,18.0,18.0,50,0.00,OVC,SCT,0.00,0.0,WeatherDisplay:10.37,2013-07-31 20:59:00,
2013-07-31 16:04:00,72.5,52.2,29.90,WNW,294,23.0,23.0,49,0.00,OVC,SCT,0.00,0.0,WeatherDisplay:10.37,2013-07-31 21:04:00,
2013-07-31 16:09:00,72.7,51.9,29.90,WNW,295,24.2,24.2,48,0.00,OVC,SCT,0.00,0.0,WeatherDisplay:10.37,2013-07-31 21:09:00,
2013-07-31 16:14:00,72.8,52.5,29.90,WNW,282,19.6,19.6,49,0.00,OVC,SCT,0.00,0.0,WeatherDisplay:10.37,2013-07-31 21:14:00,
2013-07-31 16:19:00,73.2,50.0,29.90,West,276,23.0,23.0,44,0.00,OVC,SCT,0.00,0.0,WeatherDisplay:10.37,2013-07-31 21:19:00,
2013-07-31 16:24:00,73.2,49.4,29.90,West,266,18.4,18.4,43,0.00,OVC,SCT,0.00,0.0,WeatherDisplay:10.37,2013-07-31 21:24:00,
2013-07-31 16:29:00,73.0,51.0,29.90,WNW,294,20.7,20.7,46,0.00,OVC,SCT,0.00,0.0,WeatherDisplay:10.37,2013-07-31 21:29:00,
2013-07-31 16:34:00,73.0,49.8,29.90,West,276,14.0,23.0,44,0.00,OVC,SCT,0.00,0.0,WeatherDisplay:10.37,2013-07-31 21:34:00,
2013-07-31 16:39:00,73.3,50.7,29.90,WNW,293,14.0,20.0,45,0.00,OVC,SCT,0.00,0.0,WeatherDisplay:10.37,2013-07-31 21:39:00,
2013-07-31 16:44:00,72.3,50.9,29.90,WNW,283,19.6,19.6,47,0.00,OVC,SCT,0.00,0.0,WeatherDisplay:10.37,2013-07-31 21:44:00,
2013-07-31 16:50:00,72.1,50.8,29.90,NW,306,20.0,20.0,47,0.00,OVC,SCT,0.00,0.0,WeatherDisplay:10.37,2013-07-31 21:50:00,
2013-07-31 16:55:00,72.5,50.5,29.90,NW,306,19.6,19.6,46,0.00,OVC,SCT,0.00,0.0,WeatherDisplay:10.37,2013-07-31 21:55:00,
2013-07-31 17:00:00,72.8,50.2,29.90,West,266,21.0,21.0,45,0.00,OVC,SCT,0.00,0.0,WeatherDisplay:10.37,2013-07-31 22:00:00,
2013-07-31 17:05:00,72.7,51.3,29.90,WSW,242,20.7,20.7,47,0.00,OVC,SCT,0.00,0.0,WeatherDisplay:10.37,2013-07-31 22:05:00,
2013-07-31 17:10:00,72.7,52.4,29.90,NW,315,16.1,16.1,49,0.00,OVC,SCT,0.00,0.0,WeatherDisplay:10.37,2013-07-31 22:10:00,
2013-07-31 17:15:00,72.8,50.8,29.90,WNW,303,17.3,17.3,46,0.00,OVC,SCT,0.00,0.0,WeatherDisplay:10.37,2013-07-31 22:15:00,
2013-07-31 17:20:00,72.8,50.8,29.90,West,266,19.6,19.6,46,0.00,OVC,SCT,0.00,0.0,WeatherDisplay:10.37,2013-07-31 22:20:00,
2013-07-31 17:26:00,72.8,50.8,29.90,NW,316,19.6,19.6,46,0.00,OVC,SCT,0.00,0.0,WeatherDisplay:10.37,2013-07-31 22:26:00,
2013-07-31 17:31:00,72.8,51.4,29.90,West,266,12.7,12.7,47,0.00,OVC,SCT,0.00,0.0,WeatherDisplay:10.37,2013-07-31 22:31:00,
2013-07-31 17:36:00,73.0,51.0,29.90,West,277,23.0,23.0,46,0.00,OVC,SCT,0.00,0.0,WeatherDisplay:10.37,2013-07-31 22:36:00,
2013-07-31 17:41:00,72.7,49.5,29.90,WNW,295,19.6,19.6,44,0.00,OVC,SCT,0.00,0.0,WeatherDisplay:10.37,2013-07-31 22:41:00,
2013-07-31 17:46:00,72.7,49.5,29.90,West,271,21.9,21.9,44,0.00,OVC,SCT,0.00,0.0,WeatherDisplay:10.37,2013-07-31 22:46:00,
2013-07-31 17:51:00,72.7,53.5,29.90,West,266,16.1,16.1,51,0.00,OVC,SCT,0.00,0.0,WeatherDisplay:10.37,2013-07-31 22:51:00,
2013-07-31 17:56:00,72.7,53.0,29.90,NNW,329,12.7,12.7,50,0.00,OVC,SCT,0.00,0.0,WeatherDisplay:10.37,2013-07-31 22:56:00,
2013-07-31 18:01:00,72.7,49.5,29.90,NW,305,19.6,19.6,44,0.00,OVC,SCT,0.00,0.0,WeatherDisplay:10.37,2013-07-31 23:01:00,
2013-07-31 18:06:00,72.3,50.9,29.90,WNW,302,15.0,15.0,47,0.00,OVC,SCT,0.00,0.0,WeatherDisplay:10.37,2013-07-31 23:06:00,
2013-07-31 18:12:00,72.1,50.2,29.90,West,277,13.8,13.8,46,0.00,OVC,SCT,0.00,0.0,WeatherDisplay:10.37,2013-07-31 23:12:00,
2013-07-31 18:17:00,72.3,50.9,29.90,WNW,302,16.1,16.1,47,0.00,OVC,SCT,0.00,0.0,WeatherDisplay:10.37,2013-07-31 23:17:00,
2013-07-31 18:22:00,72.1,51.9,29.90,WNW,285,10.4,10.4,49,0.00,OVC,SCT,0.00,0.0,WeatherDisplay:10.37,2013-07-31 23:22:00,
2013-07-31 18:27:00,72.1,51.3,29.90,WNW,285,17.3,17.3,48,0.00,OVC,SCT,0.00,0.0,WeatherDisplay:10.37,2013-07-31 23:27:00,
2013-07-31 18:32:00,72.1,50.8,29.90,WNW,289,16.1,16.1,47,0.00,OVC,SCT,0.00,0.0,WeatherDisplay:10.37,2013-07-31 23:32:00,
2013-07-31 18:38:00,72.0,50.7,29.90,WNW,285,20.7,20.7,47,0.00,OVC,SCT,0.00,0.0,WeatherDisplay:10.37,2013-07-31 23:38:00,
2013-07-31 18:43:00,72.0,50.1,29.90,West,276,12.7,12.7,46,0.00,OVC,SCT,0.00,0.0,WeatherDisplay:10.37,2013-07-31 23:43:00,
2013-07-31 18:48:00,71.8,50.5,29.90,West,266,15.0,15.0,47,0.00,OVC,SCT,0.00,0.0,WeatherDisplay:10.37,2013-07-31 23:48:00,
2013-07-31 18:53:00,71.8,51.0,29.90,WNW,286,17.3,17.3,48,0.00,OVC,SCT,0.00,0.0,WeatherDisplay:10.37,2013-07-31 23:53:00,
2013-07-31 18:58:00,71.6,51.4,29.90,West,261,12.7,12.7,49,0.00,OVC,SCT,0.00,0.0,WeatherDisplay:10.37,2013-07-31 23:58:00,
2013-07-31 19:03:00,71.1,50.4,29.90,WNW,294,15.0,15.0,48,0.00,,SCT,0.00,0.0,WeatherDisplay:10.37,2013-08-01 00:03:00,
2013-07-31 19:08:00,70.6,51.6,29.90,WNW,288,11.5,11.5,51,0.00,,SCT,0.00,0.0,WeatherDisplay:10.37,2013-08-01 00:08:00,
2013-07-31 19:14:00,70.6,51.1,29.90,West,277,11.5,11.5,50,0.00,,SCT,0.00,0.0,WeatherDisplay:10.37,2013-08-01 00:14:00,
2013-07-31 19:19:00,70.9,52.9,29.90,WNW,296,11.0,11.0,53,0.00,,SCT,0.00,0.0,WeatherDisplay:10.37,2013-08-01 00:19:00,
2013-07-31 19:24:00,70.9,50.8,29.90,NNW,340,14.0,14.0,49,0.00,,SCT,0.00,0.0,WeatherDisplay:10.37,2013-08-01 00:24:00,
2013-07-31 19:29:00,70.8,52.3,29.90,NNW,343,11.5,11.5,52,0.00,,SCT,0.00,0.0,WeatherDisplay:10.37,2013-08-01 00:29:00,
2013-07-31 19:34:00,70.4,51.4,29.90,WNW,298,12.7,12.7,51,0.00,,SCT,0.00,0.0,WeatherDisplay:10.37,2013-08-01 00:34:00,
2013-07-31 19:39:00,69.9,52.5,29.90,West,266,11.5,11.5,54,0.00,,SCT,0.00,0.0,WeatherDisplay:10.37,2013-08-01 00:39:00,
2013-07-31 19:44:00,69.8,51.9,29.90,WNW,302,11.5,11.5,53,0.00,,SCT,0.00,0.0,WeatherDisplay:10.37,2013-08-01 00:44:00,
2013-07-31 19:49:00,69.6,51.7,29.90,NW,306,7.0,15.0,53,0.00,,SCT,0.00,0.0,WeatherDisplay:10.37,2013-08-01 00:49:00,
2013-07-31 19:54:00,69.3,52.9,29.90,WNW,292,9.2,9.2,56,0.00,,SCT,0.00,0.0,WeatherDisplay:10.37,2013-08-01 00:54:00,
2013-07-31 20:00:00,69.1,51.8,29.90,West,278,8.1,8.1,54,0.00,,SCT,0.00,0.0,WeatherDisplay:10.37,2013-08-01 01:00:00,
2013-07-31 20:05:00,68.6,52.8,29.90,WNW,299,6.9,6.9,57,0.00,,SCT,0.00,0.0,WeatherDisplay:10.37,2013-08-01 01:05:00,
2013-07-31 20:10:00,67.6,54.1,29.90,WNW,293,5.8,5.8,62,0.00,,SCT,0.00,0.0,WeatherDisplay:10.37,2013-08-01 01:10:00,
2013-07-31 20:15:00,65.5,54.2,29.90,WNW,298,6.9,6.9,67,0.00,,SCT,0.00,0.0,WeatherDisplay:10.37,2013-08-01 01:15:00,
2013-07-31 20:20:00,64.5,53.7,29.90,WNW,300,6.0,6.0,68,0.00,,SCT,0.00,0.0,WeatherDisplay:10.37,2013-08-01 01:20:00,
2013-07-31 20:25:00,63.4,53.8,29.90,WNW,294,10.4,10.4,71,0.00,,SCT,0.00,0.0,WeatherDisplay:10.37,2013-08-01 01:25:00,
2013-07-31 20:30:00,64.7,53.9,29.91,WNW,292,6.9,6.9,68,0.00,,SCT,0.00,0.0,WeatherDisplay:10.37,2013-08-01 01:30:00,
2013-07-31 20:35:00,64.8,52.8,29.91,WNW,293,9.2,9.2,65,0.00,,SCT,0.00,0.0,WeatherDisplay:10.37,2013-08-01 01:35:00,
2013-07-31 20:41:00,65.0,53.8,29.91,WNW,300,6.9,6.9,67,0.00,,SCT,0.00,0.0,WeatherDisplay:10.37,2013-08-01 01:41:00,
2013-07-31 20:46:00,62.7,53.5,29.91,WNW,292,6.9,6.9,72,0.00,,SCT,0.00,0.0,WeatherDisplay:10.37,2013-08-01 01:46:00,
2013-07-31 20:51:00,61.6,54.0,29.91,WNW,296,6.9,6.9,76,0.00,,SCT,0.00,0.0,WeatherDisplay:10.37,2013-08-01 01:51:00,
2013-07-31 20:56:00,60.7,54.1,29.91,WNW,296,5.8,5.8,79,0.00,,SCT,0.00,0.0,WeatherDisplay:10.37,2013-08-01 01:56:00,
2013-07-31 21:02:00,60.1,53.9,29.91,WNW,291,7.0,7.0,80,0.00,,SCT,0.00,0.0,WeatherDisplay:10.37,2013-08-01 02:02:00,
2013-07-31 21:07:00,59.5,54.0,29.91,WNW,292,5.8,5.8,82,0.00,,SCT,0.00,0.0,WeatherDisplay:10.37,2013-08-01 02:07:00,
2013-07-31 21:12:00,58.9,54.1,29.91,WNW,292,4.6,4.6,84,0.00,,SCT,0.00,0.0,WeatherDisplay:10.37,2013-08-01 02:12:00,
2013-07-31 21:17:00,58.6,53.5,29.91,WNW,292,4.6,4.6,83,0.00,,SCT,0.00,0.0,WeatherDisplay:10.37,2013-08-01 02:17:00,
2013-07-31 21:22:00,58.3,53.5,29.91,WNW,292,4.0,4.0,84,0.00,,SCT,0.00,0.0,WeatherDisplay:10.37,2013-08-01 02:22:00,
2013-07-31 21:27:00,58.0,53.5,29.91,WNW,292,5.8,5.8,85,0.00,,SCT,0.00,0.0,WeatherDisplay:10.37,2013-08-01 02:27:00,
2013-07-31 21:32:00,57.5,53.3,29.91,WNW,292,4.6,4.6,86,0.00,,SCT,0.00,0.0,WeatherDisplay:10.37,2013-08-01 02:32:00,
2013-07-31 21:38:00,57.3,53.1,29.92,WNW,288,5.8,5.8,86,0.00,,SCT,0.00,0.0,WeatherDisplay:10.37,2013-08-01 02:38:00,
2013-07-31 21:43:00,57.2,53.4,29.92,WNW,290,4.6,4.6,87,0.00,,SCT,0.00,0.0,WeatherDisplay:10.37,2013-08-01 02:43:00,
2013-07-31 21:48:00,56.7,53.2,29.92,WNW,289,4.0,4.0,88,0.00,,SCT,0.00,0.0,WeatherDisplay:10.37,2013-08-01 02:48:00,
2013-07-31 21:53:00,56.6,53.1,29.92,WNW,289,3.5,3.7,88,0.00,,SCT,0.00,0.0,WeatherDisplay:10.37,2013-08-01 02:53:00,
2013-07-31 21:58:00,56.5,53.0,29.92,WNW,289,4.6,4.6,88,0.00,,SCT,0.00,0.0,WeatherDisplay:10.37,2013-08-01 02:58:00,
2013-07-31 22:03:00,56.3,53.1,29.92,WNW,292,5.8,5.8,89,0.00,,SCT,0.00,0.0,WeatherDisplay:10.37,2013-08-01 03:03:00,
2013-07-31 22:08:00,56.2,53.0,29.92,WNW,300,7.0,7.0,89,0.00,,SCT,0.00,0.0,WeatherDisplay:10.37,2013-08-01 03:08:00,
2013-07-31 22:13:00,56.0,52.8,29.92,WNW,298,10.4,10.4,89,0.00,,SCT,0.00,0.0,WeatherDisplay:10.37,2013-08-01 03:13:00,
2013-07-31 22:19:00,55.9,54.2,29.92,WNW,295,10.4,10.4,94,0.00,,SCT,0.00,0.0,WeatherDisplay:10.37,2013-08-01 03:19:00,
2013-07-31 22:24:00,55.6,52.7,29.92,WNW,294,6.9,6.9,90,0.00,,SCT,0.00,0.0,WeatherDisplay:10.37,2013-08-01 03:24:00,
2013-07-31 22:29:00,55.4,52.5,29.92,WNW,290,8.1,8.1,90,0.00,,SCT,0.00,0.0,WeatherDisplay:10.37,2013-08-01 03:29:00,
2013-07-31 22:34:00,55.3,52.4,29.92,WNW,294,6.9,6.9,90,0.00,,SCT,0.00,0.0,WeatherDisplay:10.37,2013-08-01 03:34:00,
2013-07-31 22:39:00,55.1,52.2,29.92,NW,304,8.1,8.1,90,0.00,,SCT,0.00,0.0,WeatherDisplay:10.37,2013-08-01 03:39:00,
2013-07-31 22:44:00,55.1,52.2,29.92,WNW,285,10.4,10.4,90,0.00,,SCT,0.00,0.0,WeatherDisplay:10.37,2013-08-01 03:44:00,
2013-07-31 22:49:00,55.1,52.2,29.92,WNW,298,8.1,8.1,90,0.00,,SCT,0.00,0.0,WeatherDisplay:10.37,2013-08-01 03:49:00,
2013-07-31 22:55:00,55.3,52.4,29.92,WNW,289,6.9,6.9,90,0.00,,SCT,0.00,0.0,WeatherDisplay:10.37,2013-08-01 03:55:00,
2013-07-31 23:00:00,55.3,52.1,29.92,WNW,291,6.9,6.9,89,0.00,,SCT,0.00,0.0,WeatherDisplay:10.37,2013-08-01 04:00:00,
2013-07-31 23:01:00,55.3,52.1,29.92,WNW,291,6.0,6.0,89,0.00,,SCT,0.00,0.0,WeatherDisplay:10.37,2013-08-01 04:01:00,
2013-07-31 23:02:00,55.3,52.1,29.93,WNW,291,6.9,6.9,89,0.00,,SCT,0.00,0.0,WeatherDisplay:10.37,2013-08-01 04:02:00,
2013-07-31 23:07:00,55.3,51.8,29.93,WNW,291,4.6,4.6,88,0.00,,SCT,0.00,0.0,WeatherDisplay:10.37,2013-08-01 04:07:00,
2013-07-31 23:12:00,55.1,51.6,29.93,WNW,290,5.8,6.0,88,0.00,,SCT,0.00,0.0,WeatherDisplay:10.37,2013-08-01 04:12:00,
2013-07-31 23:17:00,55.1,51.6,29.93,WNW,290,8.1,8.1,88,0.00,,SCT,0.00,0.0,WeatherDisplay:10.37,2013-08-01 04:17:00,
2013-07-31 23:23:00,55.1,51.6,29.93,WNW,291,9.2,9.2,88,0.00,,SCT,0.00,0.0,WeatherDisplay:10.37,2013-08-01 04:23:00,
2013-07-31 23:28:00,55.1,51.6,29.93,West,279,9.2,9.2,88,0.00,,SCT,0.00,0.0,WeatherDisplay:10.37,2013-08-01 04:28:00,
2013-07-31 23:33:00,55.1,51.6,29.93,WNW,295,9.2,9.2,88,0.00,,SCT,0.00,0.0,WeatherDisplay:10.37,2013-08-01 04:33:00,
2013-07-31 23:38:00,55.1,51.6,29.93,WNW,291,10.4,10.4,88,0.00,,SCT,0.00,0.0,WeatherDisplay:10.37,2013-08-01 04:38:00,
2013-07-31 23:43:00,55.0,51.5,29.92,NNW,329,8.1,8.1,88,0.00,,SCT,0.00,0.0,WeatherDisplay:10.37,2013-08-01 04:43:00,
2013-07-31 23:48:00,55.0,51.5,29.92,WNW,298,8.1,8.1,88,0.00,,SCT,0.00,0.0,WeatherDisplay:10.37,2013-08-01 04:48:00,
2013-07-31 23:53:00,55.0,51.5,29.93,NW,307,9.2,9.2,88,0.00,,SCT,0.00,0.0,WeatherDisplay:10.37,2013-08-01 04:53:00,
2013-07-31 23:58:00,55.0,51.5,29.92,NW,304,11.5,11.5,88,0.00,,SCT,0.00,0.0,WeatherDisplay:10.37,2013-08-01 04:58:00,